This is the latest recevied weather packets stored in our database for station/object HB9ZRH-10. If no packets are shown the sender has not sent any weather packets the latest 10 day(s).
| Time | Temp. | Humidity | Pressure | Rain* | Wind** | Luminosity | Snow |
|---|---|---|---|---|---|---|---|
| 1777912842 | 18.33° C | 45% | 1013.4 hPa | - | - | - | - |
| 1777912542 | 17.78° C | 46% | 1013.3 hPa | - | - | - | - |
| 1777912242 | 18.33° C | 45% | 1013.5 hPa | - | - | - | - |
| 1777911942 | 20.56° C | 43% | 1013.4 hPa | - | - | - | - |
| 1777911642 | 22.22° C | 42% | 1013.4 hPa | - | - | - | - |
| 1777911342 | 19.44° C | 44% | 1013.4 hPa | - | - | - | - |
| 1777911042 | 22.78° C | 41% | 1013.3 hPa | - | - | - | - |
| 1777910742 | 22.22° C | 41% | 1013.3 hPa | - | - | - | - |
| 1777910442 | 20° C | 42% | 1013.2 hPa | - | - | - | - |
| 1777910142 | 20° C | 42% | 1013.4 hPa | - | - | - | - |
| 1777909842 | 20° C | 42% | 1013.4 hPa | - | - | - | - |
| 1777909542 | 20.56° C | 41% | 1013.3 hPa | - | - | - | - |
| 1777909242 | 20.56° C | 41% | 1013.3 hPa | - | - | - | - |
| 1777908942 | 21.11° C | 41% | 1013.4 hPa | - | - | - | - |
| 1777908642 | 21.67° C | 40% | 1013.2 hPa | - | - | - | - |
| 1777908342 | 21.67° C | 40% | 1013.3 hPa | - | - | - | - |
| 1777908042 | 22.22° C | 39% | 1013.2 hPa | - | - | - | - |
| 1777907742 | 22.78° C | 39% | 1013.2 hPa | - | - | - | - |
| 1777907442 | 23.33° C | 39% | 1013.2 hPa | - | - | - | - |
| 1777907142 | 23.89° C | 38% | 1013.2 hPa | - | - | - | - |
| 1777906842 | 23.33° C | 39% | 1013.3 hPa | - | - | - | - |
| 1777906542 | 23.33° C | 39% | 1013.2 hPa | - | - | - | - |
| 1777906242 | 23.89° C | 38% | 1013.2 hPa | - | - | - | - |
| 1777905942 | 24.44° C | 38% | 1013.2 hPa | - | - | - | - |
| 1777905642 | 25.56° C | 37% | 1013.1 hPa | - | - | - | - |
* Rain since midnight (hover to see other rain measurements)
** Current wind speed in m/s (hover to see current wind gust speed)